Fowbelsburg, Maryland
Current Conditions -  °F | °C
As of 10:45 AM on Tuesday 21 Oct 2014 (Local Time) from KDMW Reporting Station
Scattered Clouds Scattered Clouds  
Wind Chill: 57°   Ceiling: Unl
Heat Index: 57°   Visibility: 10mi
Dew Point: 52°   Wind: 8mph
Humidity: 82%   Direction: 260°W
Pressure: 29.87"   Gusts: NA
Location:  39.5707°N, 76.8072°W
Report Text: KDMW 211445Z AUTO 26007KT 10SM SCT110 14/11 A2987 RMK AO2
Loading
Personal Weather Stations






























Interactive Weather Map
Tropical Storm Tracking
New forecast layout! Learn more

10-Day Weather Forecast

Advertisements
Track Severe Weather on mobile